createdAt,value
2022-08-03T00:00:30.398Z,16.09
2022-08-03T00:03:04.138Z,16.06
2022-08-03T00:05:33.233Z,16.01
2022-08-03T00:08:01.186Z,15.95
2022-08-03T00:10:29.801Z,15.90
2022-08-03T00:12:57.221Z,15.84
2022-08-03T00:15:24.926Z,15.82
2022-08-03T00:17:54.124Z,15.80
2022-08-03T00:20:22.217Z,15.74
2022-08-03T00:22:51.078Z,15.68
2022-08-03T00:25:19.239Z,15.62
2022-08-03T00:27:48.378Z,15.62
2022-08-03T00:30:18.018Z,15.65
2022-08-03T00:32:45.588Z,15.67
2022-08-03T00:35:28.050Z,15.66
2022-08-03T00:38:00.683Z,15.65
2022-08-03T00:40:28.742Z,15.64
2022-08-03T00:42:59.643Z,15.67
2022-08-03T00:45:30.995Z,15.68
2022-08-03T00:47:59.816Z,15.67
2022-08-03T00:50:30.246Z,15.67
2022-08-03T00:52:59.673Z,15.69
2022-08-03T00:55:27.630Z,15.69
2022-08-03T00:57:55.906Z,15.68
2022-08-03T01:00:26.409Z,15.66
2022-08-03T01:02:54.400Z,15.64
2022-08-03T01:05:22.381Z,15.63
2022-08-03T01:08:12.049Z,15.63
2022-08-03T01:11:10.132Z,15.63
2022-08-03T01:14:01.079Z,15.62
2022-08-03T01:17:10.395Z,15.60
2022-08-03T01:20:13.473Z,15.55
2022-08-03T01:23:28.766Z,15.56
2022-08-03T01:26:28.679Z,15.54
2022-08-03T01:29:29.411Z,15.53
2022-08-03T01:32:54.491Z,15.51
2022-08-03T01:35:12.655Z,15.49
2022-08-03T01:37:51.178Z,15.47
2022-08-03T01:40:21.868Z,15.46
2022-08-03T01:42:51.513Z,15.43
2022-08-03T01:45:22.024Z,15.39
2022-08-03T01:47:51.721Z,15.34
2022-08-03T01:50:24.457Z,15.29
2022-08-03T01:52:54.322Z,15.17
2022-08-03T01:55:23.341Z,15.25
2022-08-03T01:58:05.620Z,15.26
2022-08-03T02:00:40.280Z,15.30
2022-08-03T02:03:10.355Z,15.32
2022-08-03T02:05:39.862Z,15.34
2022-08-03T02:08:13.131Z,15.36
2022-08-03T02:10:43.039Z,15.41
2022-08-03T02:13:11.190Z,15.40
2022-08-03T02:15:41.118Z,15.41
2022-08-03T02:18:10.886Z,15.43
2022-08-03T02:20:40.166Z,15.42
2022-08-03T02:23:08.223Z,15.40
2022-08-03T02:25:44.557Z,15.34
2022-08-03T02:28:19.718Z,15.27
2022-08-03T02:30:56.992Z,15.22
2022-08-03T02:33:38.629Z,15.13
2022-08-03T02:36:08.047Z,15.07
2022-08-03T02:38:40.795Z,15.01
2022-08-03T02:41:15.666Z,14.97
2022-08-03T02:44:06.359Z,14.92
2022-08-03T02:46:41.299Z,14.96
2022-08-03T02:49:40.929Z,15.00
2022-08-03T02:52:00.205Z,15.10
2022-08-03T02:54:28.765Z,15.18
2022-08-03T02:56:58.816Z,15.22
2022-08-03T02:59:30.776Z,15.28
2022-08-03T03:02:01.683Z,15.33
2022-08-03T03:04:32.940Z,15.38
2022-08-03T03:07:04.331Z,15.41
2022-08-03T03:09:42.012Z,15.42
2022-08-03T03:12:13.868Z,15.40
2022-08-03T03:14:42.033Z,15.42
2022-08-03T03:17:11.841Z,15.42
2022-08-03T03:19:41.231Z,15.44
2022-08-03T03:22:09.971Z,15.51
2022-08-03T03:24:38.019Z,15.54
2022-08-03T03:27:05.667Z,15.57
2022-08-03T03:29:39.189Z,15.62
2022-08-03T03:32:08.398Z,15.69
2022-08-03T03:34:37.682Z,15.72
2022-08-03T03:37:05.770Z,15.79
2022-08-03T03:39:33.309Z,15.90
2022-08-03T03:42:00.976Z,15.97
2022-08-03T03:44:30.018Z,16.06
2022-08-03T03:47:00.793Z,16.12
2022-08-03T03:49:28.455Z,16.17
2022-08-03T03:51:56.749Z,16.23
2022-08-03T03:54:25.513Z,16.31
2022-08-03T03:56:56.774Z,16.39
2022-08-03T03:59:24.332Z,16.47
2022-08-03T04:01:59.313Z,16.58
2022-08-03T04:05:25.908Z,16.70
2022-08-03T04:08:19.187Z,16.81
2022-08-03T04:11:02.200Z,16.94
2022-08-03T04:13:47.126Z,17.05
2022-08-03T04:16:17.854Z,17.14
2022-08-03T04:18:52.171Z,17.27
2022-08-03T04:21:22.971Z,17.37
2022-08-03T04:23:57.465Z,17.46
2022-08-03T04:26:29.010Z,17.54
2022-08-03T04:28:58.662Z,17.61
2022-08-03T04:31:27.277Z,17.69
2022-08-03T04:33:55.615Z,17.77
2022-08-03T04:36:27.450Z,17.86
2022-08-03T04:39:08.027Z,17.93
2022-08-03T04:42:16.922Z,18.05
2022-08-03T04:44:28.563Z,18.23
2022-08-03T04:46:57.688Z,18.34
2022-08-03T04:49:26.197Z,18.42
2022-08-03T04:51:53.935Z,18.51
2022-08-03T04:54:21.754Z,18.56
2022-08-03T04:56:49.464Z,18.66
2022-08-03T04:59:17.497Z,18.79
2022-08-03T05:01:45.024Z,18.90
2022-08-03T05:04:45.969Z,18.98
2022-08-03T05:07:15.062Z,19.13
2022-08-03T05:09:52.481Z,19.22
2022-08-03T05:12:20.277Z,19.19
2022-08-03T05:14:47.604Z,19.14
2022-08-03T05:17:14.891Z,19.17
2022-08-03T05:19:42.195Z,19.17
2022-08-03T05:22:09.453Z,19.26
2022-08-03T05:24:36.792Z,19.32
2022-08-03T05:27:04.193Z,19.33
2022-08-03T05:29:31.541Z,19.40
2022-08-03T05:31:58.928Z,19.60
2022-08-03T05:34:26.401Z,19.77
2022-08-03T05:36:53.762Z,19.94
2022-08-03T05:39:21.049Z,20.03
2022-08-03T05:41:48.443Z,20.12
2022-08-03T05:44:15.783Z,20.20
2022-08-03T05:46:43.349Z,20.17
2022-08-03T05:49:10.868Z,20.11
2022-08-03T05:51:38.277Z,20.17
2022-08-03T05:54:05.581Z,20.23
2022-08-03T05:56:32.841Z,20.27
2022-08-03T05:59:16.257Z,20.34
2022-08-03T06:01:48.434Z,20.41
2022-08-03T06:04:15.906Z,20.48
2022-08-03T06:06:43.241Z,20.45
2022-08-03T06:09:10.746Z,20.60
2022-08-03T06:11:39.991Z,20.68
2022-08-03T06:14:07.366Z,20.77
2022-08-03T06:16:35.159Z,20.93
2022-08-03T06:19:02.728Z,21.05
2022-08-03T06:21:30.112Z,20.96
2022-08-03T06:23:58.511Z,20.93
2022-08-03T06:26:28.895Z,21.02
2022-08-03T06:28:56.354Z,21.14
2022-08-03T06:31:33.158Z,21.20
2022-08-03T06:34:30.722Z,21.34
2022-08-03T06:36:57.326Z,21.38
2022-08-03T06:39:28.992Z,21.48
2022-08-03T06:41:56.432Z,21.62
2022-08-03T06:44:23.800Z,21.69
2022-08-03T06:46:51.339Z,21.75
2022-08-03T06:49:18.749Z,21.84
2022-08-03T06:52:03.426Z,21.86
2022-08-03T06:54:33.260Z,21.77
2022-08-03T06:57:00.949Z,21.81
2022-08-03T07:00:08.498Z,21.86
2022-08-03T07:02:18.996Z,21.87
2022-08-03T07:04:50.126Z,22.00
2022-08-03T07:07:18.876Z,22.13
2022-08-03T07:09:56.835Z,22.25
2022-08-03T07:12:29.904Z,22.39
2022-08-03T07:15:02.365Z,22.50
2022-08-03T07:17:33.125Z,22.60
2022-08-03T07:20:01.999Z,22.76
2022-08-03T07:22:29.495Z,22.89
2022-08-03T07:24:57.107Z,22.87
2022-08-03T07:27:26.493Z,22.72
2022-08-03T07:29:55.098Z,22.81
2022-08-03T07:32:23.892Z,22.90
2022-08-03T07:34:54.782Z,23.09
2022-08-03T07:37:25.767Z,23.30
2022-08-03T07:39:53.082Z,23.45
2022-08-03T07:42:20.341Z,23.50
2022-08-03T07:44:47.654Z,23.69
2022-08-03T07:47:22.712Z,23.84
2022-08-03T07:49:50.691Z,23.92
2022-08-03T07:52:38.174Z,23.98
2022-08-03T07:55:08.218Z,24.02
2022-08-03T07:57:35.569Z,24.00
2022-08-03T08:00:12.157Z,24.06
2022-08-03T08:02:41.752Z,24.08
2022-08-03T08:05:12.504Z,24.17
2022-08-03T08:07:40.845Z,24.02
2022-08-03T08:10:10.247Z,23.96
2022-08-03T08:12:39.672Z,23.84
2022-08-03T08:15:09.119Z,23.83
2022-08-03T08:17:57.489Z,23.97
2022-08-03T08:20:37.994Z,24.10
2022-08-03T08:23:12.158Z,24.28
2022-08-03T08:25:55.981Z,24.42
2022-08-03T08:28:32.731Z,24.48
2022-08-03T08:31:02.309Z,24.64
2022-08-03T08:33:47.998Z,24.72
2022-08-03T08:36:19.115Z,24.76
2022-08-03T08:38:48.320Z,24.91
2022-08-03T08:41:16.168Z,24.90
2022-08-03T08:43:43.486Z,25.10
2022-08-03T08:46:23.138Z,25.24
2022-08-03T08:48:53.893Z,25.45
2022-08-03T08:51:54.574Z,25.45
2022-08-03T08:54:17.792Z,25.65
2022-08-03T08:56:45.591Z,25.64
2022-08-03T08:59:14.009Z,25.71
2022-08-03T09:01:41.280Z,25.72
2022-08-03T09:04:09.510Z,25.80
2022-08-03T09:06:37.135Z,25.70
2022-08-03T09:09:07.174Z,25.53
2022-08-03T09:11:53.700Z,25.49
2022-08-03T09:14:39.364Z,25.52
2022-08-03T09:17:17.238Z,25.47
2022-08-03T09:20:05.880Z,25.50
2022-08-03T09:22:33.261Z,25.66
2022-08-03T09:25:35.316Z,25.69
2022-08-03T09:27:53.460Z,25.68
2022-08-03T09:30:34.447Z,25.60
2022-08-03T09:33:06.597Z,25.75
2022-08-03T09:35:58.316Z,25.89
2022-08-03T09:38:27.620Z,25.97
2022-08-03T09:41:00.055Z,26.00
2022-08-03T09:43:45.345Z,26.19
2022-08-03T09:46:12.711Z,26.22
2022-08-03T09:48:44.280Z,26.29
2022-08-03T09:52:02.606Z,26.33
2022-08-03T09:54:03.623Z,26.38
2022-08-03T09:56:46.826Z,26.31
2022-08-03T09:59:33.470Z,26.39
2022-08-03T10:02:02.049Z,26.70
2022-08-03T10:04:29.361Z,26.78
2022-08-03T10:07:08.776Z,26.67
2022-08-03T10:09:37.973Z,26.61
2022-08-03T10:12:13.597Z,26.77
2022-08-03T10:14:45.152Z,26.75
2022-08-03T10:17:12.894Z,26.63
2022-08-03T10:19:43.294Z,26.29
2022-08-03T10:22:22.738Z,26.28
2022-08-03T10:25:02.415Z,26.66
2022-08-03T10:27:38.016Z,27.04
2022-08-03T10:30:11.641Z,27.09
2022-08-03T10:33:49.765Z,27.13
2022-08-03T10:36:09.223Z,27.37
2022-08-03T10:38:52.156Z,27.65
2022-08-03T10:41:31.110Z,27.91
2022-08-03T10:44:17.514Z,27.67
2022-08-03T10:46:48.417Z,27.75
2022-08-03T10:49:34.883Z,27.83
2022-08-03T10:52:12.868Z,28.31
2022-08-03T10:55:11.404Z,28.72
2022-08-03T10:57:58.703Z,28.80
2022-08-03T11:00:29.847Z,28.62
2022-08-03T11:03:14.136Z,28.65
2022-08-03T11:05:53.386Z,28.34
2022-08-03T11:08:30.505Z,28.16
2022-08-03T11:11:16.544Z,28.48
2022-08-03T11:14:17.342Z,28.70
2022-08-03T11:17:05.436Z,28.81
2022-08-03T11:19:56.498Z,28.53
2022-08-03T11:22:45.599Z,28.01
2022-08-03T11:25:52.972Z,27.93
2022-08-03T11:28:29.079Z,28.01
2022-08-03T11:31:48.875Z,28.10
2022-08-03T11:34:14.698Z,28.01
2022-08-03T11:37:22.145Z,28.13
2022-08-03T11:39:53.998Z,28.40
2022-08-03T11:42:24.030Z,28.38
2022-08-03T11:44:54.310Z,28.18
2022-08-03T11:47:23.619Z,27.85
2022-08-03T11:49:54.900Z,27.71
2022-08-03T11:52:27.147Z,28.19
2022-08-03T11:54:57.097Z,28.99
2022-08-03T11:59:11.284Z,29.45
2022-08-03T12:00:29.110Z,29.62
2022-08-03T12:02:59.668Z,29.21
2022-08-03T12:05:42.533Z,28.55
2022-08-03T12:08:32.914Z,28.46
2022-08-03T12:11:06.765Z,28.30
2022-08-03T12:14:30.063Z,28.36
2022-08-03T12:16:37.966Z,27.93
2022-08-03T12:19:09.023Z,28.24
2022-08-03T12:21:57.445Z,28.87
2022-08-03T12:24:27.921Z,29.83
2022-08-03T12:26:58.093Z,30.15
2022-08-03T12:29:26.930Z,29.94
2022-08-03T12:31:56.091Z,30.28
2022-08-03T12:34:23.770Z,30.61
2022-08-03T12:36:55.815Z,30.97
2022-08-03T12:39:26.088Z,31.41
2022-08-03T12:41:55.915Z,31.32
2022-08-03T12:44:35.880Z,30.60
2022-08-03T12:47:06.211Z,29.82
2022-08-03T12:49:48.101Z,29.51
2022-08-03T12:52:17.535Z,29.50
2022-08-03T12:55:01.286Z,29.52
2022-08-03T12:57:43.848Z,29.80
2022-08-03T13:00:21.761Z,29.39
2022-08-03T13:05:57.105Z,27.75
2022-08-03T13:08:25.557Z,26.63
2022-08-03T13:10:53.032Z,26.32
2022-08-03T13:13:39.138Z,26.15
2022-08-03T13:16:06.434Z,25.77
2022-08-03T13:18:33.771Z,25.81
2022-08-03T13:21:02.254Z,25.91
2022-08-03T13:23:29.815Z,25.99
2022-08-03T13:25:57.082Z,26.10
2022-08-03T13:28:24.681Z,26.29
2022-08-03T13:30:53.793Z,26.47
2022-08-03T13:33:21.265Z,26.70
2022-08-03T13:35:48.626Z,26.86
2022-08-03T13:38:15.985Z,26.92
2022-08-03T13:40:44.797Z,26.93
2022-08-03T13:43:13.523Z,26.74
2022-08-03T13:45:40.777Z,26.67
2022-08-03T13:48:08.101Z,26.68
2022-08-03T13:50:37.611Z,26.59
2022-08-03T13:53:08.457Z,26.60
2022-08-03T13:55:35.700Z,26.54
2022-08-03T13:58:07.465Z,26.52
2022-08-03T14:00:35.065Z,26.59
2022-08-03T14:03:12.223Z,26.69
2022-08-03T14:05:42.911Z,26.85
2022-08-03T14:08:11.592Z,26.92
2022-08-03T14:10:43.095Z,27.06
2022-08-03T14:13:17.503Z,27.17
2022-08-03T14:15:49.982Z,27.26
2022-08-03T14:18:28.270Z,27.19
2022-08-03T14:21:06.622Z,27.31
2022-08-03T14:23:39.792Z,27.37
2022-08-03T14:26:07.645Z,27.48
2022-08-03T14:28:35.593Z,27.41
2022-08-03T14:31:03.671Z,27.35
2022-08-03T14:33:30.992Z,27.29
2022-08-03T14:35:58.370Z,27.34
2022-08-03T14:38:25.716Z,27.36
2022-08-03T14:40:53.434Z,27.53
2022-08-03T14:43:21.185Z,27.82
2022-08-03T14:45:53.115Z,27.85
2022-08-03T14:50:32.848Z,28.10
2022-08-03T14:51:09.837Z,28.37
2022-08-03T14:53:37.301Z,28.30
2022-08-03T14:56:09.803Z,28.51
2022-08-03T14:58:38.949Z,28.35
2022-08-03T15:02:02.107Z,28.27
2022-08-03T15:03:54.404Z,28.80
2022-08-03T15:06:21.697Z,28.88
2022-08-03T15:09:13.861Z,28.79
2022-08-03T15:11:37.020Z,28.41
2022-08-03T15:14:08.941Z,28.13
2022-08-03T15:16:38.244Z,28.01
2022-08-03T15:19:59.556Z,28.16
2022-08-03T15:21:53.563Z,28.37
2022-08-03T15:24:21.251Z,28.84
2022-08-03T15:26:50.341Z,29.39
2022-08-03T15:30:05.334Z,29.69
2022-08-03T15:32:09.167Z,29.25
2022-08-03T15:34:37.033Z,28.76
2022-08-03T15:37:16.215Z,28.17
2022-08-03T15:39:59.659Z,27.62
2022-08-03T15:42:30.888Z,27.52
2022-08-03T15:44:58.923Z,27.32
2022-08-03T15:47:26.739Z,27.24
2022-08-03T15:49:54.135Z,27.11
2022-08-03T15:52:21.465Z,26.98
2022-08-03T15:54:48.684Z,26.80
2022-08-03T15:57:16.042Z,26.95
2022-08-03T15:59:43.416Z,26.89
2022-08-03T16:02:10.846Z,26.85
2022-08-03T16:04:38.135Z,26.84
2022-08-03T16:07:05.639Z,26.85
2022-08-03T16:09:43.249Z,26.81
2022-08-03T16:12:16.190Z,26.99
2022-08-03T16:14:52.431Z,27.72
2022-08-03T16:17:21.932Z,28.37
2022-08-03T16:19:50.650Z,28.28
2022-08-03T16:22:22.166Z,27.99
2022-08-03T16:24:54.351Z,27.52
2022-08-03T16:27:55.747Z,27.10
2022-08-03T16:30:15.581Z,26.97
2022-08-03T16:32:44.986Z,26.79
2022-08-03T16:35:19.620Z,26.61
2022-08-03T16:37:54.652Z,26.37
2022-08-03T16:40:25.393Z,26.18
2022-08-03T16:42:53.344Z,26.06
2022-08-03T16:45:21.081Z,25.92
2022-08-03T16:48:01.272Z,25.88
2022-08-03T16:50:35.501Z,25.77
2022-08-03T16:53:12.794Z,25.64
2022-08-03T16:55:53.556Z,25.47
2022-08-03T16:58:34.811Z,25.40
2022-08-03T17:01:21.733Z,25.29
2022-08-03T17:04:03.603Z,25.22
2022-08-03T17:06:36.326Z,25.12
2022-08-03T17:09:08.690Z,25.02
2022-08-03T17:11:46.439Z,24.93
2022-08-03T17:14:22.471Z,24.87
2022-08-03T17:16:54.070Z,24.80
2022-08-03T17:19:24.666Z,24.72
2022-08-03T17:22:12.076Z,24.66
2022-08-03T17:24:50.513Z,24.61
2022-08-03T17:28:41.588Z,24.54
2022-08-03T17:30:18.944Z,24.46
2022-08-03T17:32:57.085Z,24.40
2022-08-03T17:35:36.880Z,24.30
2022-08-03T17:38:10.361Z,24.22
2022-08-03T17:40:48.270Z,24.11
2022-08-03T17:44:13.313Z,24.02
2022-08-03T17:46:11.101Z,23.89
2022-08-03T17:48:54.014Z,23.75
2022-08-03T17:52:32.670Z,23.66
2022-08-03T17:55:57.227Z,23.50
2022-08-03T17:58:13.265Z,23.39
2022-08-03T18:01:04.594Z,23.28
2022-08-03T18:04:02.195Z,23.16
2022-08-03T18:06:37.669Z,23.07
2022-08-03T18:10:03.864Z,22.98
2022-08-03T18:12:26.614Z,22.91
2022-08-03T18:15:08.337Z,22.83
2022-08-03T18:17:55.931Z,22.76
2022-08-03T18:20:32.695Z,22.68
2022-08-03T18:23:06.048Z,22.62
2022-08-03T18:25:44.900Z,22.55
2022-08-03T18:28:15.615Z,22.48
2022-08-03T18:30:53.664Z,22.41
2022-08-03T18:34:18.526Z,22.36
2022-08-03T18:36:21.854Z,22.29
2022-08-03T18:38:59.675Z,22.23
2022-08-03T18:41:33.603Z,22.15
2022-08-03T18:44:53.886Z,22.06
2022-08-03T18:47:52.405Z,21.93
2022-08-03T18:50:35.278Z,21.85
2022-08-03T18:53:19.695Z,21.77
2022-08-03T18:56:02.903Z,21.65
2022-08-03T18:59:30.768Z,21.57
2022-08-03T19:02:23.822Z,21.43
2022-08-03T19:04:58.333Z,21.34
2022-08-03T19:07:32.699Z,21.25
2022-08-03T19:10:10.594Z,21.17
2022-08-03T19:12:53.801Z,21.09
2022-08-03T19:15:36.970Z,21.03
2022-08-03T19:18:11.202Z,20.97
2022-08-03T19:20:39.808Z,20.93
2022-08-03T19:23:07.893Z,20.91
2022-08-03T19:25:40.520Z,20.88
2022-08-03T19:28:09.165Z,20.86
2022-08-03T19:30:39.517Z,20.85
2022-08-03T19:33:13.215Z,20.87
2022-08-03T19:35:51.774Z,20.91
2022-08-03T19:38:27.659Z,20.98
2022-08-03T19:41:02.445Z,21.07
2022-08-03T19:43:53.789Z,21.16
2022-08-03T19:49:16.404Z,21.36
2022-08-03T19:52:01.369Z,21.48
2022-08-03T19:54:53.817Z,21.59
2022-08-03T19:57:26.955Z,21.68
2022-08-03T19:59:56.301Z,21.78
2022-08-03T20:02:26.526Z,21.85
2022-08-03T20:04:57.105Z,21.90
2022-08-03T20:07:31.831Z,21.96
2022-08-03T20:10:04.205Z,21.99
2022-08-03T20:12:39.232Z,22.01
2022-08-03T20:15:09.902Z,22.02
2022-08-03T20:17:55.869Z,22.03
2022-08-03T20:20:30.266Z,22.03
2022-08-03T20:23:00.615Z,22.01
2022-08-03T20:25:48.758Z,21.98
2022-08-03T20:28:50.665Z,21.94
2022-08-03T20:31:32.491Z,21.90
2022-08-03T20:34:05.995Z,21.89
2022-08-03T20:36:33.308Z,21.86
2022-08-03T20:39:01.571Z,21.85
2022-08-03T20:41:35.635Z,21.83
2022-08-03T20:44:04.090Z,21.81
2022-08-03T20:46:44.069Z,21.78
2022-08-03T20:49:23.011Z,21.74
2022-08-03T20:51:53.326Z,21.69
2022-08-03T20:54:30.992Z,21.64
2022-08-03T20:57:00.787Z,21.51
2022-08-03T20:59:50.434Z,21.33
2022-08-03T21:02:29.717Z,21.21
2022-08-03T21:05:08.653Z,21.08
2022-08-03T21:08:05.584Z,20.95
2022-08-03T21:10:32.040Z,20.86
2022-08-03T21:13:02.898Z,21.28
2022-08-03T21:13:54.953Z,20.80
2022-08-03T21:16:27.257Z,20.69
2022-08-03T21:18:58.226Z,20.63
2022-08-03T21:21:29.862Z,20.61
2022-08-03T21:23:59.170Z,20.60
2022-08-03T21:26:27.133Z,20.56
2022-08-03T21:28:56.628Z,20.55
2022-08-03T21:31:26.578Z,20.52
2022-08-03T21:34:01.064Z,20.48
2022-08-03T21:36:32.861Z,20.48
2022-08-03T21:39:01.640Z,20.49
2022-08-03T21:41:31.973Z,20.48
2022-08-03T21:44:00.804Z,20.47
2022-08-03T21:46:34.864Z,20.40
2022-08-03T21:50:07.140Z,20.24
2022-08-03T21:51:56.690Z,20.09
2022-08-03T21:54:30.896Z,19.98
2022-08-03T21:57:08.540Z,19.90
2022-08-03T21:59:39.748Z,19.79
2022-08-03T22:02:22.425Z,19.70
2022-08-03T22:04:56.131Z,19.66
2022-08-03T22:07:27.238Z,19.60
2022-08-03T22:09:56.633Z,19.57
2022-08-03T22:12:26.838Z,19.54
2022-08-03T22:15:00.985Z,19.54
2022-08-03T22:17:55.036Z,19.55
2022-08-03T22:20:24.468Z,19.53
2022-08-03T22:22:56.740Z,19.56
2022-08-03T22:25:30.177Z,19.56
2022-08-03T22:28:08.510Z,19.55
2022-08-03T22:30:37.945Z,19.56
2022-08-03T22:33:11.031Z,19.59
2022-08-03T22:35:47.968Z,19.54
2022-08-03T22:38:18.937Z,19.58
2022-08-03T22:40:50.443Z,19.49
2022-08-03T22:43:22.067Z,19.40
2022-08-03T22:46:09.714Z,19.37
2022-08-03T22:48:41.296Z,19.39
2022-08-03T22:51:09.911Z,19.33
2022-08-03T22:53:38.876Z,19.31
2022-08-03T22:56:07.881Z,19.31
2022-08-03T22:58:35.218Z,19.31
2022-08-03T23:01:06.824Z,19.31
2022-08-03T23:04:00.446Z,19.29
2022-08-03T23:06:34.308Z,19.26
2022-08-03T23:09:13.639Z,19.24
2022-08-03T23:11:45.980Z,19.23
2022-08-03T23:14:18.109Z,19.20
2022-08-03T23:16:47.409Z,19.20
2022-08-03T23:19:25.327Z,19.18
2022-08-03T23:22:02.913Z,19.17
2022-08-03T23:24:38.823Z,19.13
2022-08-03T23:27:08.950Z,19.07
2022-08-03T23:29:39.353Z,19.00
2022-08-03T23:32:07.238Z,18.97
2022-08-03T23:34:57.423Z,18.91
2022-08-03T23:37:26.560Z,18.88
2022-08-03T23:39:56.677Z,18.87
2022-08-03T23:42:25.123Z,18.85
2022-08-03T23:44:57.020Z,18.82
2022-08-03T23:47:46.771Z,18.84
2022-08-03T23:50:17.049Z,18.84
2022-08-03T23:53:17.046Z,18.84
2022-08-03T23:56:06.174Z,18.83
2022-08-03T23:59:21.736Z,18.89
